createdAt,value
2022-08-19T00:02:12.567Z,99606.01
2022-08-19T00:04:41.376Z,99605.45
2022-08-19T00:07:11.522Z,99607.87
2022-08-19T00:09:39.617Z,99611.63
2022-08-19T00:12:07.937Z,99610.88
2022-08-19T00:14:36.214Z,99608.35
2022-08-19T00:17:06.090Z,99610.19
2022-08-19T00:19:35.037Z,99611.94
2022-08-19T00:22:03.693Z,99608.41
2022-08-19T00:24:32.283Z,99609.43
2022-08-19T00:27:25.582Z,99606.36
2022-08-19T00:29:52.792Z,99603.08
2022-08-19T00:32:22.069Z,99604.18
2022-08-19T00:34:50.259Z,99605.47
2022-08-19T00:37:18.426Z,99603.41
2022-08-19T00:39:49.070Z,99603.47
2022-08-19T00:42:18.259Z,99605.98
2022-08-19T00:44:47.599Z,99609.77
2022-08-19T00:47:16.076Z,99612.66
2022-08-19T00:49:51.821Z,99613.55
2022-08-19T00:52:30.395Z,99611.76
2022-08-19T00:54:59.804Z,99608.06
2022-08-19T00:57:33.810Z,99603.61
2022-08-19T01:00:03.552Z,99599.12
2022-08-19T01:02:33.386Z,99596.21
2022-08-19T01:05:05.973Z,99598.45
2022-08-19T01:07:38.206Z,99593.43
2022-08-19T01:10:10.083Z,99591.90
2022-08-19T01:12:39.735Z,99586.23
2022-08-19T01:15:10.949Z,99587.14
2022-08-19T01:17:41.374Z,99588.70
2022-08-19T01:20:20.410Z,99589.80
2022-08-19T01:22:55.061Z,99595.02
2022-08-19T01:25:29.011Z,99598.49
2022-08-19T01:27:59.114Z,99598.83
2022-08-19T01:30:38.842Z,99591.66
2022-08-19T01:33:07.119Z,99591.59
2022-08-19T01:35:36.499Z,99586.25
2022-08-19T01:38:09.409Z,99589.84
2022-08-19T01:40:41.086Z,99590.20
2022-08-19T01:43:09.587Z,99591.98
2022-08-19T01:45:40.305Z,99590.89
2022-08-19T01:48:09.242Z,99589.35
2022-08-19T01:50:37.674Z,99587.98
2022-08-19T01:53:10.707Z,99591.51
2022-08-19T01:55:42.694Z,99592.54
2022-08-19T01:58:19.860Z,99596.00
2022-08-19T02:00:48.735Z,99593.59
2022-08-19T02:03:17.496Z,99588.94
2022-08-19T02:05:57.018Z,99585.20
2022-08-19T02:08:25.186Z,99577.61
2022-08-19T02:10:53.466Z,99574.61
2022-08-19T02:13:26.194Z,99572.09
2022-08-19T02:15:55.180Z,99569.23
2022-08-19T02:18:23.377Z,99566.27
2022-08-19T02:20:57.202Z,99568.23
2022-08-19T02:23:25.528Z,99569.00
2022-08-19T02:25:53.828Z,99569.30
2022-08-19T02:28:21.998Z,99575.33
2022-08-19T02:30:50.114Z,99581.64
2022-08-19T02:33:18.342Z,99588.73
2022-08-19T02:35:47.777Z,99595.51
2022-08-19T02:38:28.166Z,99599.48
2022-08-19T02:41:03.088Z,99599.47
2022-08-19T02:43:37.074Z,99599.70
2022-08-19T02:46:22.327Z,99604.73
2022-08-19T02:48:55.134Z,99602.15
2022-08-19T02:51:27.720Z,99603.65
2022-08-19T02:53:55.921Z,99605.65
2022-08-19T02:56:26.497Z,99607.48
2022-08-19T02:58:58.211Z,99606.75
2022-08-19T03:01:30.216Z,99603.37
2022-08-19T03:04:00.556Z,99604.02
2022-08-19T03:06:29.183Z,99609.20
2022-08-19T03:09:05.037Z,99610.77
2022-08-19T03:11:34.438Z,99607.34
2022-08-19T03:14:05.330Z,99602.19
2022-08-19T03:16:41.018Z,99595.71
2022-08-19T03:19:09.546Z,99604.60
2022-08-19T03:21:37.816Z,99612.48
2022-08-19T03:24:09.641Z,99613.95
2022-08-19T03:26:47.154Z,99617.68
2022-08-19T03:29:16.316Z,99619.27
2022-08-19T03:32:05.215Z,99625.60
2022-08-19T03:34:35.733Z,99628.77
2022-08-19T03:37:10.268Z,99630.84
2022-08-19T03:39:40.641Z,99638.13
2022-08-19T03:42:38.594Z,99647.98
2022-08-19T03:44:59.616Z,99654.77
2022-08-19T03:47:27.881Z,99658.77
2022-08-19T03:49:56.119Z,99663.95
2022-08-19T03:52:24.425Z,99672.13
2022-08-19T03:54:52.887Z,99673.04
2022-08-19T03:57:21.494Z,99671.60
2022-08-19T03:59:53.631Z,99675.78
2022-08-19T04:02:22.567Z,99674.65
2022-08-19T04:04:55.483Z,99676.73
2022-08-19T04:07:23.660Z,99685.41
2022-08-19T04:10:10.641Z,99693.77
2022-08-19T04:12:40.533Z,99693.41
2022-08-19T04:15:09.577Z,99693.85
2022-08-19T04:17:37.686Z,99690.48
2022-08-19T04:20:07.045Z,99693.11
2022-08-19T04:22:35.474Z,99691.27
2022-08-19T04:25:04.359Z,99691.99
2022-08-19T04:27:33.796Z,99698.04
2022-08-19T04:30:01.972Z,99699.84
2022-08-19T04:32:31.602Z,99705.29
2022-08-19T04:35:01.399Z,99712.88
2022-08-19T04:37:44.931Z,99718.65
2022-08-19T04:40:32.164Z,99721.29
2022-08-19T04:43:00.440Z,99717.05
2022-08-19T04:45:29.361Z,99710.48
2022-08-19T04:48:28.110Z,99706.45
2022-08-19T04:51:01.196Z,99701.95
2022-08-19T04:53:35.517Z,99698.66
2022-08-19T04:56:15.375Z,99701.55
2022-08-19T04:58:46.353Z,99707.16
2022-08-19T05:01:19.124Z,99707.05
2022-08-19T05:03:49.765Z,99710.02
2022-08-19T05:06:20.712Z,99703.47
2022-08-19T05:08:50.151Z,99697.54
2022-08-19T05:11:26.671Z,99693.63
2022-08-19T05:13:56.248Z,99694.42
2022-08-19T05:16:27.598Z,99687.52
2022-08-19T05:19:15.802Z,99679.95
2022-08-19T05:22:04.162Z,99683.48
2022-08-19T05:24:35.241Z,99686.08
2022-08-19T05:27:06.306Z,99694.34
2022-08-19T05:29:36.523Z,99699.83
2022-08-19T05:32:11.749Z,99704.98
2022-08-19T05:34:40.040Z,99707.13
2022-08-19T05:37:09.534Z,99706.32
2022-08-19T05:39:40.036Z,99703.02
2022-08-19T05:42:10.712Z,99699.36
2022-08-19T05:44:45.896Z,99694.23
2022-08-19T05:47:16.114Z,99694.34
2022-08-19T05:49:44.673Z,99698.06
2022-08-19T05:52:18.572Z,99698.21
2022-08-19T05:54:51.435Z,99694.46
2022-08-19T05:57:20.579Z,99693.48
2022-08-19T05:59:52.763Z,99697.44
2022-08-19T06:02:31.913Z,99693.73
2022-08-19T06:05:04.988Z,99692.33
2022-08-19T06:07:33.195Z,99693.73
2022-08-19T06:10:03.101Z,99690.31
2022-08-19T06:12:36.117Z,99689.03
2022-08-19T06:15:12.622Z,99686.42
2022-08-19T06:17:42.941Z,99679.66
2022-08-19T06:20:14.418Z,99685.02
2022-08-19T06:22:45.966Z,99682.16
2022-08-19T06:25:15.985Z,99670.06
2022-08-19T06:30:35.971Z,99664.04
2022-08-19T06:33:04.309Z,99667.68
2022-08-19T06:35:32.710Z,99674.13
2022-08-19T06:38:00.914Z,99676.64
2022-08-19T06:40:31.368Z,99677.15
2022-08-19T06:43:03.673Z,99677.67
2022-08-19T06:45:39.819Z,99674.56
2022-08-19T06:48:08.532Z,99675.34
2022-08-19T06:50:39.799Z,99678.29
2022-08-19T06:53:09.367Z,99681.23
2022-08-19T06:55:38.662Z,99679.59
2022-08-19T06:58:07.941Z,99680.60
2022-08-19T07:00:37.963Z,99676.48
2022-08-19T07:03:08.752Z,99679.05
2022-08-19T07:05:45.732Z,99683.24
2022-08-19T07:08:15.021Z,99665.85
2022-08-19T07:10:47.151Z,99662.58
2022-08-19T07:13:16.239Z,99666.52
2022-08-19T07:15:44.393Z,99664.50
2022-08-19T07:18:12.589Z,99664.37
2022-08-19T07:20:42.972Z,99665.38
2022-08-19T07:23:15.967Z,99664.93
2022-08-19T07:25:52.953Z,99659.98
2022-08-19T07:28:24.736Z,99662.52
2022-08-19T07:30:53.849Z,99664.22
2022-08-19T07:33:22.185Z,99665.76
2022-08-19T07:35:51.014Z,99667.95
2022-08-19T07:38:19.222Z,99666.38
2022-08-19T07:40:47.528Z,99668.03
2022-08-19T07:43:17.080Z,99668.42
2022-08-19T07:45:48.116Z,99666.48
2022-08-19T07:48:16.202Z,99669.02
2022-08-19T07:50:44.490Z,99667.55
2022-08-19T07:53:13.508Z,99668.00
2022-08-19T07:55:43.830Z,99662.83
2022-08-19T07:58:15.344Z,99662.05
2022-08-19T08:00:45.470Z,99664.34
2022-08-19T08:03:15.196Z,99663.09
2022-08-19T08:06:02.319Z,99660.77
2022-08-19T08:08:49.611Z,99658.66
2022-08-19T08:11:21.218Z,99660.79
2022-08-19T08:14:00.931Z,99656.89
2022-08-19T08:16:39.550Z,99656.05
2022-08-19T08:19:25.521Z,99652.38
2022-08-19T08:21:58.747Z,99655.41
2022-08-19T08:24:29.512Z,99656.41
2022-08-19T08:27:01.619Z,99658.88
2022-08-19T08:29:34.807Z,99656.92
2022-08-19T08:32:13.869Z,99654.63
2022-08-19T08:34:43.908Z,99645.87
2022-08-19T08:37:12.086Z,99650.83
2022-08-19T08:39:42.829Z,99646.61
2022-08-19T08:42:17.768Z,99647.89
2022-08-19T08:45:16.875Z,99639.55
2022-08-19T08:47:51.107Z,99636.55
2022-08-19T08:50:44.133Z,99634.02
2022-08-19T08:53:17.452Z,99628.54
2022-08-19T08:55:58.354Z,99626.40
2022-08-19T08:58:59.042Z,99628.67
2022-08-19T09:01:30.497Z,99633.86
2022-08-19T09:04:02.888Z,99634.94
2022-08-19T09:06:40.970Z,99635.52
2022-08-19T09:09:33.503Z,99635.92
2022-08-19T09:12:13.884Z,99636.18
2022-08-19T09:14:58.157Z,99635.28
2022-08-19T09:17:32.174Z,99631.61
2022-08-19T09:20:09.063Z,99637.19
2022-08-19T09:22:45.087Z,99634.88
2022-08-19T09:25:17.854Z,99629.86
2022-08-19T09:28:02.531Z,99630.99
2022-08-19T09:30:41.152Z,99631.89
2022-08-19T09:33:09.491Z,99630.71
2022-08-19T09:35:50.129Z,99632.64
2022-08-19T09:38:22.478Z,99633.67
2022-08-19T09:40:50.994Z,99629.04
2022-08-19T09:43:33.041Z,99632.23
2022-08-19T09:46:03.101Z,99630.12
2022-08-19T09:48:31.294Z,99628.04
2022-08-19T09:51:28.776Z,99634.70
2022-08-19T09:54:02.450Z,99632.46
2022-08-19T09:56:34.233Z,99631.69
2022-08-19T09:59:04.862Z,99636.68
2022-08-19T10:01:34.096Z,99638.70
2022-08-19T10:04:14.747Z,99634.86
2022-08-19T10:06:53.698Z,99642.27
2022-08-19T10:09:26.155Z,99641.35
2022-08-19T10:11:55.211Z,99640.09
2022-08-19T10:14:25.662Z,99644.91
2022-08-19T10:16:54.020Z,99640.08
2022-08-19T10:19:26.017Z,99637.85
2022-08-19T10:21:55.714Z,99639.15
2022-08-19T10:24:29.197Z,99638.84
2022-08-19T10:26:59.805Z,99632.73
2022-08-19T10:29:31.884Z,99633.24
2022-08-19T10:32:04.481Z,99638.05
2022-08-19T10:34:48.311Z,99633.10
2022-08-19T10:37:23.835Z,99628.04
2022-08-19T10:39:57.156Z,99628.58
2022-08-19T10:42:25.527Z,99629.62
2022-08-19T10:44:53.630Z,99628.05
2022-08-19T10:47:25.466Z,99626.77
2022-08-19T10:50:15.029Z,99625.82
2022-08-19T10:52:48.918Z,99621.98
2022-08-19T10:55:40.036Z,99624.52
2022-08-19T10:58:15.080Z,99622.19
2022-08-19T11:00:44.495Z,99625.91
2022-08-19T11:03:13.199Z,99619.68
2022-08-19T11:05:42.384Z,99617.26
2022-08-19T11:08:23.487Z,99617.95
2022-08-19T11:10:56.475Z,99615.04
2022-08-19T11:13:25.762Z,99609.09
2022-08-19T11:16:24.580Z,99610.70
2022-08-19T11:18:55.899Z,99606.10
2022-08-19T11:21:34.322Z,99614.80
2022-08-19T11:24:07.101Z,99613.54
2022-08-19T11:26:37.058Z,99607.21
2022-08-19T11:29:12.475Z,99603.04
2022-08-19T11:31:44.478Z,99599.36
2022-08-19T11:34:19.396Z,99609.41
2022-08-19T11:36:49.892Z,99601.23
2022-08-19T11:39:21.269Z,99590.56
2022-08-19T11:41:49.745Z,99588.21
2022-08-19T11:44:18.816Z,99588.77
2022-08-19T11:46:47.910Z,99582.55
2022-08-19T11:49:19.861Z,99583.80
2022-08-19T11:51:51.238Z,99582.86
2022-08-19T11:54:19.502Z,99578.55
2022-08-19T11:56:48.893Z,99580.09
2022-08-19T11:59:17.129Z,99583.55
2022-08-19T12:01:45.338Z,99582.02
2022-08-19T12:04:13.566Z,99581.92
2022-08-19T12:06:42.813Z,99581.77
2022-08-19T12:09:11.897Z,99577.52
2022-08-19T12:11:41.640Z,99572.67
2022-08-19T12:14:15.235Z,99569.95
2022-08-19T12:16:51.265Z,99564.69
2022-08-19T12:19:22.345Z,99564.08
2022-08-19T12:21:52.381Z,99563.12
2022-08-19T12:24:24.290Z,99562.40
2022-08-19T12:26:53.867Z,99558.46
2022-08-19T12:29:26.425Z,99552.06
2022-08-19T12:31:54.574Z,99560.54
2022-08-19T12:34:22.879Z,99558.09
2022-08-19T12:36:51.085Z,99548.13
2022-08-19T12:39:19.426Z,99548.44
2022-08-19T12:41:54.097Z,99548.96
2022-08-19T12:44:29.606Z,99545.63
2022-08-19T12:47:00.943Z,99547.13
2022-08-19T12:49:54.438Z,99546.13
2022-08-19T12:52:23.038Z,99547.80
2022-08-19T12:54:54.672Z,99540.41
2022-08-19T12:57:32.295Z,99542.31
2022-08-19T13:00:12.605Z,99542.48
2022-08-19T13:02:42.562Z,99550.16
2022-08-19T13:05:13.054Z,99550.10
2022-08-19T13:07:42.577Z,99546.44
2022-08-19T13:10:13.517Z,99549.11
2022-08-19T13:12:42.402Z,99547.54
2022-08-19T13:15:12.278Z,99550.25
2022-08-19T13:17:40.996Z,99547.13
2022-08-19T13:20:11.444Z,99549.98
2022-08-19T13:22:39.736Z,99548.11
2022-08-19T13:25:09.038Z,99544.20
2022-08-19T13:27:37.390Z,99547.73
2022-08-19T13:30:28.621Z,99548.84
2022-08-19T13:33:12.125Z,99542.56
2022-08-19T13:35:58.247Z,99540.63
2022-08-19T13:38:26.453Z,99543.02
2022-08-19T13:40:56.917Z,99540.29
2022-08-19T13:43:27.654Z,99543.30
2022-08-19T13:45:58.855Z,99541.23
2022-08-19T13:48:28.085Z,99540.80
2022-08-19T13:50:59.652Z,99540.45
2022-08-19T13:53:27.940Z,99543.81
2022-08-19T13:55:56.316Z,99543.35
2022-08-19T13:58:24.496Z,99543.55
2022-08-19T14:00:52.781Z,99545.49
2022-08-19T14:03:21.119Z,99544.13
2022-08-19T14:05:49.301Z,99540.93
2022-08-19T14:08:18.423Z,99540.31
2022-08-19T14:10:47.290Z,99539.01
2022-08-19T14:13:20.055Z,99537.65
2022-08-19T14:15:48.534Z,99534.35
2022-08-19T14:18:18.791Z,99534.94
2022-08-19T14:20:47.001Z,99532.59
2022-08-19T14:23:15.788Z,99535.71
2022-08-19T14:25:44.637Z,99535.20
2022-08-19T14:28:12.761Z,99533.44
2022-08-19T14:30:40.955Z,99537.29
2022-08-19T14:33:09.586Z,99533.02
2022-08-19T14:35:38.767Z,99530.15
2022-08-19T14:38:15.590Z,99531.55
2022-08-19T14:40:44.008Z,99532.52
2022-08-19T14:43:12.345Z,99524.44
2022-08-19T14:45:41.181Z,99525.38
2022-08-19T14:48:17.819Z,99528.61
2022-08-19T14:50:48.029Z,99526.11
2022-08-19T14:53:18.122Z,99525.55
2022-08-19T14:55:47.581Z,99523.66
2022-08-19T14:58:29.297Z,99521.73
2022-08-19T15:01:02.294Z,99518.93
2022-08-19T15:03:30.890Z,99520.71
2022-08-19T15:06:00.197Z,99520.95
2022-08-19T15:08:30.475Z,99520.02
2022-08-19T15:10:59.873Z,99512.56
2022-08-19T15:13:30.049Z,99512.74
2022-08-19T15:15:58.335Z,99513.83
2022-08-19T15:18:26.566Z,99516.43
2022-08-19T15:20:55.194Z,99513.83
2022-08-19T15:23:24.168Z,99510.30
2022-08-19T15:25:56.650Z,99509.54
2022-08-19T15:28:26.656Z,99507.14
2022-08-19T15:30:55.052Z,99505.29
2022-08-19T15:33:23.727Z,99511.27
2022-08-19T15:35:52.020Z,99509.95
2022-08-19T15:38:22.374Z,99510.58
2022-08-19T15:40:52.359Z,99509.98
2022-08-19T15:43:24.030Z,99513.46
2022-08-19T15:45:52.175Z,99510.27
2022-08-19T15:48:20.342Z,99503.41
2022-08-19T15:50:48.460Z,99509.62
2022-08-19T15:53:16.570Z,99516.08
2022-08-19T15:55:46.106Z,99513.58
2022-08-19T15:58:33.798Z,99512.56
2022-08-19T16:01:26.801Z,99518.48
2022-08-19T16:04:15.821Z,99522.74
2022-08-19T16:06:48.058Z,99524.45
2022-08-19T16:09:18.155Z,99530.49
2022-08-19T16:11:56.577Z,99528.80
2022-08-19T16:14:25.837Z,99528.40
2022-08-19T16:16:55.043Z,99525.96
2022-08-19T16:19:24.477Z,99527.39
2022-08-19T16:21:56.318Z,99526.01
2022-08-19T16:24:27.976Z,99527.92
2022-08-19T16:26:57.644Z,99531.45
2022-08-19T16:29:34.683Z,99533.98
2022-08-19T16:32:11.882Z,99535.80
2022-08-19T16:34:41.651Z,99540.77
2022-08-19T16:37:10.313Z,99546.93
2022-08-19T16:39:39.302Z,99549.46
2022-08-19T16:42:09.052Z,99553.14
2022-08-19T16:44:42.219Z,99548.94
2022-08-19T16:47:11.128Z,99553.15
2022-08-19T16:49:53.590Z,99556.67
2022-08-19T16:52:27.203Z,99556.92
2022-08-19T16:54:55.558Z,99561.78
2022-08-19T16:57:24.061Z,99561.17
2022-08-19T16:59:52.532Z,99564.74
2022-08-19T17:02:23.624Z,99564.77
2022-08-19T17:04:59.398Z,99567.38
2022-08-19T17:07:33.151Z,99567.33
2022-08-19T17:10:05.605Z,99574.73
2022-08-19T17:12:34.774Z,99573.48
2022-08-19T17:15:04.134Z,99581.77
2022-08-19T17:17:32.428Z,99577.61
2022-08-19T17:20:02.716Z,99580.55
2022-08-19T17:22:30.931Z,99585.55
2022-08-19T17:24:59.174Z,99586.07
2022-08-19T17:27:32.310Z,99592.45
2022-08-19T17:30:04.859Z,99596.88
2022-08-19T17:32:34.914Z,99596.04
2022-08-19T17:35:04.290Z,99596.54
2022-08-19T17:37:33.674Z,99592.48
2022-08-19T17:40:04.118Z,99597.70
2022-08-19T17:42:32.480Z,99602.08
2022-08-19T17:45:00.562Z,99601.48
2022-08-19T17:47:29.398Z,99604.70
2022-08-19T17:49:58.116Z,99605.75
2022-08-19T17:52:26.510Z,99607.25
2022-08-19T17:54:54.798Z,99607.42
2022-08-19T17:57:22.926Z,99609.06
2022-08-19T17:59:52.102Z,99609.26
2022-08-19T18:02:21.859Z,99612.21
2022-08-19T18:04:50.830Z,99611.86
2022-08-19T18:07:21.857Z,99613.73
2022-08-19T18:09:52.913Z,99610.29
2022-08-19T18:12:27.037Z,99606.33
2022-08-19T18:14:55.284Z,99609.73
2022-08-19T18:17:24.605Z,99603.23
2022-08-19T18:19:52.888Z,99603.23
2022-08-19T18:22:49.471Z,99599.85
2022-08-19T18:25:24.286Z,99605.65
2022-08-19T18:27:57.434Z,99600.93
2022-08-19T18:30:34.493Z,99602.10
2022-08-19T18:33:13.864Z,99606.87
2022-08-19T18:35:46.249Z,99609.39
2022-08-19T18:38:36.481Z,99610.36
2022-08-19T18:41:24.424Z,99607.72
2022-08-19T18:44:11.681Z,99606.80
2022-08-19T18:46:58.400Z,99610.93
2022-08-19T18:49:31.705Z,99610.23
2022-08-19T18:52:00.348Z,99609.54
2022-08-19T18:54:30.491Z,99607.55
2022-08-19T18:56:58.848Z,99603.66
2022-08-19T18:59:29.274Z,99606.07
2022-08-19T19:01:59.985Z,99602.07
2022-08-19T19:04:36.141Z,99599.93
2022-08-19T19:07:05.625Z,99597.30
2022-08-19T19:09:34.112Z,99597.25
2022-08-19T19:12:04.900Z,99596.79
2022-08-19T19:14:49.131Z,99601.47
2022-08-19T19:17:18.390Z,99601.21
2022-08-19T19:19:46.610Z,99598.27
2022-08-19T19:22:19.339Z,99595.55
2022-08-19T19:24:48.401Z,99596.40
2022-08-19T19:27:20.627Z,99597.02
2022-08-19T19:29:52.401Z,99596.24
2022-08-19T19:32:30.671Z,99594.60
2022-08-19T19:34:59.763Z,99591.55
2022-08-19T19:37:27.855Z,99599.77
2022-08-19T19:39:56.506Z,99600.23
2022-08-19T19:42:25.461Z,99602.13
2022-08-19T19:44:55.849Z,99604.73
2022-08-19T19:47:24.616Z,99608.79
2022-08-19T19:50:13.886Z,99606.71
2022-08-19T19:52:45.914Z,99607.33
2022-08-19T19:55:18.543Z,99606.29
2022-08-19T19:57:48.983Z,99605.25
2022-08-19T20:00:19.259Z,99604.70
2022-08-19T20:02:50.459Z,99604.77
2022-08-19T20:05:21.692Z,99602.02
2022-08-19T20:08:10.320Z,99604.34
2022-08-19T20:10:39.509Z,99603.70
2022-08-19T20:13:09.487Z,99605.32
2022-08-19T20:15:42.313Z,99609.21
2022-08-19T20:18:13.518Z,99609.59
2022-08-19T20:20:42.586Z,99608.25
2022-08-19T20:23:13.965Z,99609.67
2022-08-19T20:25:42.565Z,99610.51
2022-08-19T20:28:19.373Z,99615.15
2022-08-19T20:30:48.684Z,99615.86
2022-08-19T20:33:17.094Z,99615.63
2022-08-19T20:35:45.569Z,99618.61
2022-08-19T20:38:13.767Z,99621.17
2022-08-19T20:40:41.869Z,99621.96
2022-08-19T20:43:12.243Z,99624.27
2022-08-19T20:45:41.319Z,99625.30
2022-08-19T20:48:12.462Z,99623.38
2022-08-19T20:50:41.059Z,99620.84
2022-08-19T20:53:11.504Z,99622.23
2022-08-19T20:55:39.681Z,99623.66
2022-08-19T20:58:08.757Z,99620.34
2022-08-19T21:00:36.976Z,99619.73
2022-08-19T21:03:06.881Z,99618.65
2022-08-19T21:05:35.020Z,99621.52
2022-08-19T21:08:04.736Z,99623.04
2022-08-19T21:10:33.878Z,99622.75
2022-08-19T21:13:03.968Z,99624.44
2022-08-19T21:15:32.430Z,99625.24
2022-08-19T21:18:00.565Z,99624.16
2022-08-19T21:20:28.705Z,99628.06
2022-08-19T21:22:56.822Z,99632.19
2022-08-19T21:25:25.085Z,99633.75
2022-08-19T21:27:53.200Z,99636.17
2022-08-19T21:30:21.407Z,99634.92
2022-08-19T21:32:52.497Z,99633.25
2022-08-19T21:35:23.680Z,99636.34
2022-08-19T21:37:52.219Z,99628.92
2022-08-19T21:40:21.915Z,99631.17
2022-08-19T21:42:49.997Z,99635.16
2022-08-19T21:45:18.631Z,99632.41
2022-08-19T21:47:47.201Z,99632.24
2022-08-19T21:50:15.655Z,99628.87
2022-08-19T21:52:43.777Z,99629.84
2022-08-19T21:55:13.262Z,99629.81
2022-08-19T21:57:42.799Z,99629.55
2022-08-19T22:00:19.020Z,99633.52
2022-08-19T22:02:47.491Z,99634.08
2022-08-19T22:05:15.694Z,99634.52
2022-08-19T22:07:43.972Z,99621.42
2022-08-19T22:10:12.115Z,99627.11
2022-08-19T22:12:47.359Z,99626.55
2022-08-19T22:15:24.066Z,99624.29
2022-08-19T22:17:52.443Z,99621.15
2022-08-19T22:20:24.790Z,99618.98
2022-08-19T22:22:58.706Z,99619.34
2022-08-19T22:25:34.942Z,99615.94
2022-08-19T22:28:06.398Z,99616.54
2022-08-19T22:30:41.758Z,99614.70
2022-08-19T22:33:17.030Z,99617.33
2022-08-19T22:35:47.256Z,99622.20
2022-08-19T22:38:16.306Z,99619.04
2022-08-19T22:40:48.645Z,99619.27
2022-08-19T22:43:26.440Z,99616.10
2022-08-19T22:45:55.874Z,99594.07
2022-08-19T22:48:28.410Z,99606.58
2022-08-19T22:51:16.192Z,99604.14
2022-08-19T22:53:46.755Z,99601.17
2022-08-19T22:56:18.646Z,99602.48
2022-08-19T22:58:50.159Z,99602.70
2022-08-19T23:01:27.497Z,99602.93
2022-08-19T23:04:00.222Z,99602.15
2022-08-19T23:06:33.569Z,99604.77
2022-08-19T23:09:07.262Z,99600.30
2022-08-19T23:11:41.960Z,99606.03
2022-08-19T23:14:12.714Z,99604.08
2022-08-19T23:16:42.087Z,99610.61
2022-08-19T23:19:11.205Z,99615.47
2022-08-19T23:21:40.845Z,99610.67
2022-08-19T23:24:09.973Z,99609.58
2022-08-19T23:26:38.417Z,99607.14
2022-08-19T23:29:25.090Z,99611.81
2022-08-19T23:31:53.198Z,99617.86
2022-08-19T23:34:21.379Z,99618.45
2022-08-19T23:36:50.789Z,99621.08
2022-08-19T23:39:19.519Z,99625.30
2022-08-19T23:41:47.741Z,99627.39
2022-08-19T23:44:15.851Z,99630.27
2022-08-19T23:46:55.250Z,99631.65
2022-08-19T23:49:25.978Z,99636.02
2022-08-19T23:51:55.788Z,99634.37
2022-08-19T23:54:34.261Z,99634.70
2022-08-19T23:57:14.382Z,99633.98
2022-08-19T23:59:45.789Z,99636.10
